CN52 weather

Oroville Hospital Heliport
Oroville, California, United States

Public forecast

Using degrees Fahrenheit for public forecast. Weather courtesy of forecast.io.

Closest aviation weather report (METAR) to Oroville Hospital Heliport

Closest report is Oroville Municipal Airport, 3.9 nm (7.2 km) WSW. Retrieved 2019/10/14 23:53 UTC (18 minutes ago):

KOVE 142353Z AUTO 19004KT 10SM CLR 27/M03 A2993 RMK AO2 SLP135 T02671028 10272 20189 55002

Closest aviation forecast (TAF) to Oroville Hospital Heliport

Forecast is more than 12 hours old.

Closest forecast is Beale Air Force Base, 22.8 nm (42.3 km) SSE. Retrieved 2019/10/14 11:03 UTC (13 hours ago):

TAF TAF KBAB 141100Z 1411/1517 VRB06KT 9999 SKC QNH2986INS TX26/1423Z TN07/1413Z